sensor_id;sensor_type;location;lat;lon;timestamp;P1;durP1;ratioP1;P2;durP2;ratioP2
50631;SDS011;49583;45.590;-122.498;2022-11-15T00:01:14;6.60;;;4.80;;
50631;SDS011;49583;45.590;-122.498;2022-11-15T00:03:46;6.70;;;5.70;;
50631;SDS011;49583;45.590;-122.498;2022-11-15T00:06:21;4.90;;;4.40;;
50631;SDS011;49583;45.590;-122.498;2022-11-15T00:08:52;7.70;;;4.10;;
50631;SDS011;49583;45.590;-122.498;2022-11-15T00:11:23;5.80;;;4.30;;
50631;SDS011;49583;45.590;-122.498;2022-11-15T00:13:56;5.10;;;4.60;;
50631;SDS011;49583;45.590;-122.498;2022-11-15T00:16:29;4.90;;;4.40;;
50631;SDS011;49583;45.590;-122.498;2022-11-15T00:19:01;7.90;;;6.30;;
50631;SDS011;49583;45.590;-122.498;2022-11-15T00:21:32;10.60;;;6.60;;
50631;SDS011;49583;45.590;-122.498;2022-11-15T00:24:04;5.40;;;4.60;;
50631;SDS011;49583;45.590;-122.498;2022-11-15T00:26:35;5.90;;;5.10;;
50631;SDS011;49583;45.590;-122.498;2022-11-15T00:29:07;5.50;;;4.80;;
50631;SDS011;49583;45.590;-122.498;2022-11-15T00:31:39;5.20;;;4.70;;
50631;SDS011;49583;45.590;-122.498;2022-11-15T00:34:12;10.50;;;5.10;;
50631;SDS011;49583;45.590;-122.498;2022-11-15T00:36:43;4.90;;;4.00;;
50631;SDS011;49583;45.590;-122.498;2022-11-15T00:39:14;4.70;;;3.80;;
50631;SDS011;49583;45.590;-122.498;2022-11-15T00:41:45;3.90;;;3.60;;
50631;SDS011;49583;45.590;-122.498;2022-11-15T00:44:17;4.70;;;3.80;;
50631;SDS011;49583;45.590;-122.498;2022-11-15T00:46:49;4.70;;;4.10;;
50631;SDS011;49583;45.590;-122.498;2022-11-15T00:49:20;5.00;;;3.80;;
50631;SDS011;49583;45.590;-122.498;2022-11-15T00:51:51;5.50;;;4.50;;
50631;SDS011;49583;45.590;-122.498;2022-11-15T00:54:23;4.70;;;4.30;;
50631;SDS011;49583;45.590;-122.498;2022-11-15T00:56:54;5.60;;;3.90;;
50631;SDS011;49583;45.590;-122.498;2022-11-15T00:59:26;6.00;;;4.80;;
50631;SDS011;49583;45.590;-122.498;2022-11-15T01:01:58;6.00;;;4.30;;
50631;SDS011;49583;45.590;-122.498;2022-11-15T01:04:30;5.60;;;3.90;;
50631;SDS011;49583;45.590;-122.498;2022-11-15T01:07:01;4.90;;;4.00;;
50631;SDS011;49583;45.590;-122.498;2022-11-15T01:09:33;5.00;;;4.20;;
50631;SDS011;49583;45.590;-122.498;2022-11-15T01:12:05;5.40;;;4.40;;
50631;SDS011;49583;45.590;-122.498;2022-11-15T01:17:06;8.20;;;5.40;;
50631;SDS011;49583;45.590;-122.498;2022-11-15T01:19:37;6.30;;;4.60;;
50631;SDS011;49583;45.590;-122.498;2022-11-15T01:22:10;7.20;;;5.50;;
50631;SDS011;49583;45.590;-122.498;2022-11-15T01:24:41;5.50;;;4.90;;
50631;SDS011;49583;45.590;-122.498;2022-11-15T01:27:12;6.90;;;4.70;;
50631;SDS011;49583;45.590;-122.498;2022-11-15T01:29:43;7.40;;;4.70;;
50631;SDS011;49583;45.590;-122.498;2022-11-15T01:32:15;5.50;;;4.50;;
50631;SDS011;49583;45.590;-122.498;2022-11-15T01:34:46;5.70;;;5.10;;
50631;SDS011;49583;45.590;-122.498;2022-11-15T01:37:18;6.60;;;4.60;;
50631;SDS011;49583;45.590;-122.498;2022-11-15T01:39:49;8.80;;;5.50;;
50631;SDS011;49583;45.590;-122.498;2022-11-15T01:42:21;4.70;;;3.90;;
50631;SDS011;49583;45.590;-122.498;2022-11-15T01:44:53;5.70;;;4.10;;
50631;SDS011;49583;45.590;-122.498;2022-11-15T01:47:24;4.70;;;4.20;;
50631;SDS011;49583;45.590;-122.498;2022-11-15T01:50:00;5.10;;;3.90;;
50631;SDS011;49583;45.590;-122.498;2022-11-15T01:52:34;7.60;;;4.70;;
50631;SDS011;49583;45.590;-122.498;2022-11-15T01:55:09;6.90;;;5.30;;
50631;SDS011;49583;45.590;-122.498;2022-11-15T01:57:44;6.30;;;4.60;;
50631;SDS011;49583;45.590;-122.498;2022-11-15T02:00:19;6.10;;;4.90;;
50631;SDS011;49583;45.590;-122.498;2022-11-15T02:02:50;6.50;;;4.70;;
50631;SDS011;49583;45.590;-122.498;2022-11-15T02:05:22;7.50;;;5.10;;
50631;SDS011;49583;45.590;-122.498;2022-11-15T02:07:55;6.00;;;4.10;;
50631;SDS011;49583;45.590;-122.498;2022-11-15T02:10:29;4.90;;;4.10;;
50631;SDS011;49583;45.590;-122.498;2022-11-15T02:13:02;6.50;;;4.00;;
50631;SDS011;49583;45.590;-122.498;2022-11-15T02:15:35;7.10;;;5.50;;
50631;SDS011;49583;45.590;-122.498;2022-11-15T02:18:14;6.30;;;5.20;;
50631;SDS011;49583;45.590;-122.498;2022-11-15T02:20:55;5.10;;;4.40;;
50631;SDS011;49583;45.590;-122.498;2022-11-15T02:29:41;5.90;;;5.20;;
50631;SDS011;49583;45.590;-122.498;2022-11-15T02:32:30;5.50;;;4.50;;
50631;SDS011;49583;45.590;-122.498;2022-11-15T02:35:08;6.90;;;5.30;;
50631;SDS011;49583;45.590;-122.498;2022-11-15T02:37:50;6.30;;;4.80;;
50631;SDS011;49583;45.590;-122.498;2022-11-15T02:40:26;7.60;;;4.50;;
50631;SDS011;49583;45.590;-122.498;2022-11-15T02:43:04;5.30;;;4.40;;
50631;SDS011;49583;45.590;-122.498;2022-11-15T02:45:59;5.60;;;4.90;;
50631;SDS011;49583;45.590;-122.498;2022-11-15T02:48:38;11.50;;;5.20;;
50631;SDS011;49583;45.590;-122.498;2022-11-15T02:51:11;6.20;;;5.10;;
50631;SDS011;49583;45.590;-122.498;2022-11-15T02:53:44;5.80;;;4.20;;
50631;SDS011;49583;45.590;-122.498;2022-11-15T02:56:15;7.00;;;5.30;;
50631;SDS011;49583;45.590;-122.498;2022-11-15T02:58:52;5.80;;;5.20;;
50631;SDS011;49583;45.590;-122.498;2022-11-15T03:01:41;6.90;;;5.50;;
50631;SDS011;49583;45.590;-122.498;2022-11-15T03:04:26;5.70;;;4.50;;
50631;SDS011;49583;45.590;-122.498;2022-11-15T03:07:08;5.70;;;4.60;;
50631;SDS011;49583;45.590;-122.498;2022-11-15T03:09:45;8.40;;;5.30;;
50631;SDS011;49583;45.590;-122.498;2022-11-15T03:12:26;7.20;;;4.70;;
50631;SDS011;49583;45.590;-122.498;2022-11-15T03:15:04;5.60;;;4.30;;
50631;SDS011;49583;45.590;-122.498;2022-11-15T03:17:40;7.70;;;4.80;;
50631;SDS011;49583;45.590;-122.498;2022-11-15T03:20:16;5.50;;;4.90;;
50631;SDS011;49583;45.590;-122.498;2022-11-15T03:25:19;6.00;;;5.10;;
50631;SDS011;49583;45.590;-122.498;2022-11-15T03:27:54;7.50;;;5.00;;
50631;SDS011;49583;45.590;-122.498;2022-11-15T03:30:28;5.50;;;4.00;;
50631;SDS011;49583;45.590;-122.498;2022-11-15T03:33:04;7.20;;;5.00;;
50631;SDS011;49583;45.590;-122.498;2022-11-15T03:38:08;6.10;;;4.30;;
50631;SDS011;49583;45.590;-122.498;2022-11-15T03:40:45;4.90;;;4.30;;
50631;SDS011;49583;45.590;-122.498;2022-11-15T03:43:23;7.00;;;5.00;;
50631;SDS011;49583;45.590;-122.498;2022-11-15T03:46:00;5.20;;;4.30;;
50631;SDS011;49583;45.590;-122.498;2022-11-15T03:48:37;7.10;;;5.40;;
50631;SDS011;49583;45.590;-122.498;2022-11-15T03:51:13;6.80;;;4.90;;
50631;SDS011;49583;45.590;-122.498;2022-11-15T03:56:14;8.10;;;5.30;;
50631;SDS011;49583;45.590;-122.498;2022-11-15T03:58:45;6.10;;;4.50;;
50631;SDS011;49583;45.590;-122.498;2022-11-15T04:01:17;6.40;;;4.90;;
50631;SDS011;49583;45.590;-122.498;2022-11-15T04:03:48;6.60;;;4.60;;
50631;SDS011;49583;45.590;-122.498;2022-11-15T04:06:20;7.30;;;4.80;;
50631;SDS011;49583;45.590;-122.498;2022-11-15T04:08:51;8.40;;;4.70;;
50631;SDS011;49583;45.590;-122.498;2022-11-15T04:11:23;7.90;;;5.10;;
50631;SDS011;49583;45.590;-122.498;2022-11-15T04:13:54;6.60;;;5.20;;
50631;SDS011;49583;45.590;-122.498;2022-11-15T04:16:26;6.50;;;5.20;;
50631;SDS011;49583;45.590;-122.498;2022-11-15T04:18:57;6.20;;;5.30;;
50631;SDS011;49583;45.590;-122.498;2022-11-15T04:21:45;6.10;;;4.80;;
50631;SDS011;49583;45.590;-122.498;2022-11-15T04:24:33;5.40;;;4.60;;
50631;SDS011;49583;45.590;-122.498;2022-11-15T04:27:04;7.50;;;5.80;;
50631;SDS011;49583;45.590;-122.498;2022-11-15T04:29:39;7.50;;;6.00;;
50631;SDS011;49583;45.590;-122.498;2022-11-15T04:32:10;8.00;;;5.60;;
50631;SDS011;49583;45.590;-122.498;2022-11-15T04:34:41;8.10;;;5.00;;
50631;SDS011;49583;45.590;-122.498;2022-11-15T04:37:12;6.40;;;5.30;;
50631;SDS011;49583;45.590;-122.498;2022-11-15T04:39:43;7.20;;;5.30;;
50631;SDS011;49583;45.590;-122.498;2022-11-15T04:42:15;6.50;;;5.50;;
50631;SDS011;49583;45.590;-122.498;2022-11-15T04:44:46;6.70;;;5.40;;
50631;SDS011;49583;45.590;-122.498;2022-11-15T04:47:18;7.40;;;5.70;;
50631;SDS011;49583;45.590;-122.498;2022-11-15T04:49:50;6.90;;;5.40;;
50631;SDS011;49583;45.590;-122.498;2022-11-15T04:52:21;8.70;;;5.10;;
50631;SDS011;49583;45.590;-122.498;2022-11-15T04:54:52;5.20;;;4.60;;
50631;SDS011;49583;45.590;-122.498;2022-11-15T04:57:30;7.30;;;5.40;;
50631;SDS011;49583;45.590;-122.498;2022-11-15T05:00:02;6.20;;;5.30;;
50631;SDS011;49583;45.590;-122.498;2022-11-15T05:02:38;6.40;;;5.00;;
50631;SDS011;49583;45.590;-122.498;2022-11-15T05:05:25;6.40;;;5.80;;
50631;SDS011;49583;45.590;-122.498;2022-11-15T05:07:57;6.80;;;4.80;;
50631;SDS011;49583;45.590;-122.498;2022-11-15T05:10:29;7.70;;;5.50;;
50631;SDS011;49583;45.590;-122.498;2022-11-15T05:13:01;7.20;;;5.60;;
50631;SDS011;49583;45.590;-122.498;2022-11-15T05:15:33;6.30;;;4.80;;
50631;SDS011;49583;45.590;-122.498;2022-11-15T05:18:04;7.20;;;5.30;;
50631;SDS011;49583;45.590;-122.498;2022-11-15T05:20:45;5.10;;;4.00;;
50631;SDS011;49583;45.590;-122.498;2022-11-15T05:23:17;6.40;;;5.40;;
50631;SDS011;49583;45.590;-122.498;2022-11-15T05:25:49;7.60;;;5.20;;
50631;SDS011;49583;45.590;-122.498;2022-11-15T05:28:19;9.20;;;5.50;;
50631;SDS011;49583;45.590;-122.498;2022-11-15T05:30:50;5.70;;;4.90;;
50631;SDS011;49583;45.590;-122.498;2022-11-15T05:33:21;6.50;;;5.00;;
50631;SDS011;49583;45.590;-122.498;2022-11-15T05:35:55;6.70;;;4.80;;
50631;SDS011;49583;45.590;-122.498;2022-11-15T05:38:31;6.50;;;5.20;;
50631;SDS011;49583;45.590;-122.498;2022-11-15T05:41:03;10.90;;;6.20;;
50631;SDS011;49583;45.590;-122.498;2022-11-15T05:43:35;8.40;;;5.60;;
50631;SDS011;49583;45.590;-122.498;2022-11-15T05:46:09;6.70;;;4.70;;
50631;SDS011;49583;45.590;-122.498;2022-11-15T05:48:40;6.70;;;5.60;;
50631;SDS011;49583;45.590;-122.498;2022-11-15T05:51:15;10.40;;;5.40;;
50631;SDS011;49583;45.590;-122.498;2022-11-15T05:53:49;8.70;;;5.40;;
50631;SDS011;49583;45.590;-122.498;2022-11-15T05:56:23;6.10;;;4.90;;
50631;SDS011;49583;45.590;-122.498;2022-11-15T05:58:57;6.50;;;4.90;;
50631;SDS011;49583;45.590;-122.498;2022-11-15T06:03:58;7.00;;;5.00;;
50631;SDS011;49583;45.590;-122.498;2022-11-15T06:06:29;5.90;;;4.90;;
50631;SDS011;49583;45.590;-122.498;2022-11-15T06:09:02;8.20;;;5.40;;
50631;SDS011;49583;45.590;-122.498;2022-11-15T06:11:34;7.80;;;5.20;;
50631;SDS011;49583;45.590;-122.498;2022-11-15T06:14:06;9.70;;;5.20;;
50631;SDS011;49583;45.590;-122.498;2022-11-15T06:16:38;9.60;;;5.50;;
50631;SDS011;49583;45.590;-122.498;2022-11-15T06:19:09;8.80;;;5.40;;
50631;SDS011;49583;45.590;-122.498;2022-11-15T06:24:10;5.50;;;4.10;;
50631;SDS011;49583;45.590;-122.498;2022-11-15T06:26:45;7.50;;;5.60;;
50631;SDS011;49583;45.590;-122.498;2022-11-15T06:29:16;7.00;;;5.60;;
50631;SDS011;49583;45.590;-122.498;2022-11-15T06:31:47;9.60;;;6.00;;
50631;SDS011;49583;45.590;-122.498;2022-11-15T06:34:18;8.30;;;5.90;;
50631;SDS011;49583;45.590;-122.498;2022-11-15T06:36:49;7.50;;;5.00;;
50631;SDS011;49583;45.590;-122.498;2022-11-15T06:39:20;6.90;;;5.60;;
50631;SDS011;49583;45.590;-122.498;2022-11-15T06:41:51;10.60;;;6.10;;
50631;SDS011;49583;45.590;-122.498;2022-11-15T06:44:22;7.70;;;5.80;;
50631;SDS011;49583;45.590;-122.498;2022-11-15T06:46:53;11.20;;;6.30;;
50631;SDS011;49583;45.590;-122.498;2022-11-15T06:49:24;7.80;;;6.10;;
50631;SDS011;49583;45.590;-122.498;2022-11-15T06:51:56;14.90;;;6.20;;
50631;SDS011;49583;45.590;-122.498;2022-11-15T06:54:27;9.80;;;6.00;;
50631;SDS011;49583;45.590;-122.498;2022-11-15T06:56:58;7.10;;;5.80;;
50631;SDS011;49583;45.590;-122.498;2022-11-15T06:59:30;6.60;;;5.20;;
50631;SDS011;49583;45.590;-122.498;2022-11-15T07:02:05;9.70;;;5.80;;
50631;SDS011;49583;45.590;-122.498;2022-11-15T07:04:39;14.00;;;6.40;;
50631;SDS011;49583;45.590;-122.498;2022-11-15T07:07:11;8.50;;;6.90;;
50631;SDS011;49583;45.590;-122.498;2022-11-15T07:09:42;9.00;;;6.40;;
50631;SDS011;49583;45.590;-122.498;2022-11-15T07:12:13;8.60;;;6.60;;
50631;SDS011;49583;45.590;-122.498;2022-11-15T07:14:45;10.00;;;6.70;;
50631;SDS011;49583;45.590;-122.498;2022-11-15T07:17:16;9.90;;;6.70;;
50631;SDS011;49583;45.590;-122.498;2022-11-15T07:19:47;8.60;;;6.90;;
50631;SDS011;49583;45.590;-122.498;2022-11-15T07:22:19;9.60;;;6.40;;
50631;SDS011;49583;45.590;-122.498;2022-11-15T07:24:50;9.60;;;6.10;;
50631;SDS011;49583;45.590;-122.498;2022-11-15T07:27:22;9.00;;;6.60;;
50631;SDS011;49583;45.590;-122.498;2022-11-15T07:29:55;10.00;;;6.60;;
50631;SDS011;49583;45.590;-122.498;2022-11-15T07:32:26;9.30;;;6.80;;
50631;SDS011;49583;45.590;-122.498;2022-11-15T07:34:57;9.20;;;7.30;;
50631;SDS011;49583;45.590;-122.498;2022-11-15T07:37:28;7.50;;;6.40;;
50631;SDS011;49583;45.590;-122.498;2022-11-15T07:39:59;8.90;;;6.50;;
50631;SDS011;49583;45.590;-122.498;2022-11-15T07:42:32;8.30;;;6.60;;
50631;SDS011;49583;45.590;-122.498;2022-11-15T07:45:23;12.30;;;8.00;;
50631;SDS011;49583;45.590;-122.498;2022-11-15T07:47:55;15.70;;;6.30;;
50631;SDS011;49583;45.590;-122.498;2022-11-15T07:50:26;9.10;;;6.70;;
50631;SDS011;49583;45.590;-122.498;2022-11-15T07:52:58;10.90;;;7.00;;
50631;SDS011;49583;45.590;-122.498;2022-11-15T07:55:30;10.30;;;7.20;;
50631;SDS011;49583;45.590;-122.498;2022-11-15T07:58:04;9.10;;;7.40;;
50631;SDS011;49583;45.590;-122.498;2022-11-15T08:00:36;11.30;;;6.70;;
50631;SDS011;49583;45.590;-122.498;2022-11-15T08:03:08;7.60;;;6.00;;
50631;SDS011;49583;45.590;-122.498;2022-11-15T08:05:41;10.70;;;7.20;;
50631;SDS011;49583;45.590;-122.498;2022-11-15T08:08:17;10.40;;;7.00;;
50631;SDS011;49583;45.590;-122.498;2022-11-15T08:10:48;9.10;;;6.60;;
50631;SDS011;49583;45.590;-122.498;2022-11-15T08:13:19;8.30;;;6.60;;
50631;SDS011;49583;45.590;-122.498;2022-11-15T08:15:50;9.10;;;6.60;;
50631;SDS011;49583;45.590;-122.498;2022-11-15T08:18:25;9.70;;;6.60;;
50631;SDS011;49583;45.590;-122.498;2022-11-15T08:20:57;11.40;;;8.00;;
50631;SDS011;49583;45.590;-122.498;2022-11-15T08:23:30;11.80;;;7.70;;
50631;SDS011;49583;45.590;-122.498;2022-11-15T08:26:03;9.80;;;7.60;;
50631;SDS011;49583;45.590;-122.498;2022-11-15T08:28:35;7.40;;;6.00;;
50631;SDS011;49583;45.590;-122.498;2022-11-15T08:31:06;9.00;;;6.80;;
50631;SDS011;49583;45.590;-122.498;2022-11-15T08:33:43;9.80;;;7.20;;
50631;SDS011;49583;45.590;-122.498;2022-11-15T08:36:15;12.30;;;8.40;;
50631;SDS011;49583;45.590;-122.498;2022-11-15T08:38:46;11.30;;;7.80;;
50631;SDS011;49583;45.590;-122.498;2022-11-15T08:41:24;14.30;;;9.20;;
50631;SDS011;49583;45.590;-122.498;2022-11-15T08:43:58;10.30;;;7.90;;
50631;SDS011;49583;45.590;-122.498;2022-11-15T08:46:30;14.50;;;8.30;;
50631;SDS011;49583;45.590;-122.498;2022-11-15T08:49:02;12.30;;;8.70;;
50631;SDS011;49583;45.590;-122.498;2022-11-15T08:51:33;10.40;;;7.40;;
50631;SDS011;49583;45.590;-122.498;2022-11-15T08:54:05;12.60;;;8.20;;
50631;SDS011;49583;45.590;-122.498;2022-11-15T08:56:36;11.50;;;7.50;;
50631;SDS011;49583;45.590;-122.498;2022-11-15T08:59:07;13.10;;;8.80;;
50631;SDS011;49583;45.590;-122.498;2022-11-15T09:01:39;13.30;;;9.00;;
50631;SDS011;49583;45.590;-122.498;2022-11-15T09:04:10;13.30;;;8.30;;
50631;SDS011;49583;45.590;-122.498;2022-11-15T09:06:41;14.80;;;8.10;;
50631;SDS011;49583;45.590;-122.498;2022-11-15T09:09:12;14.30;;;9.40;;
50631;SDS011;49583;45.590;-122.498;2022-11-15T09:11:44;11.10;;;8.30;;
50631;SDS011;49583;45.590;-122.498;2022-11-15T09:14:15;12.80;;;8.50;;
50631;SDS011;49583;45.590;-122.498;2022-11-15T09:16:46;13.50;;;8.70;;
50631;SDS011;49583;45.590;-122.498;2022-11-15T09:19:18;14.00;;;9.50;;
50631;SDS011;49583;45.590;-122.498;2022-11-15T09:21:49;17.80;;;9.20;;
50631;SDS011;49583;45.590;-122.498;2022-11-15T09:24:20;15.20;;;9.50;;
50631;SDS011;49583;45.590;-122.498;2022-11-15T09:26:51;14.40;;;9.70;;
50631;SDS011;49583;45.590;-122.498;2022-11-15T09:29:22;15.40;;;9.60;;
50631;SDS011;49583;45.590;-122.498;2022-11-15T09:31:54;15.50;;;9.40;;
50631;SDS011;49583;45.590;-122.498;2022-11-15T09:34:25;22.40;;;11.50;;
50631;SDS011;49583;45.590;-122.498;2022-11-15T09:36:56;17.20;;;10.70;;
50631;SDS011;49583;45.590;-122.498;2022-11-15T09:39:27;14.40;;;10.30;;
50631;SDS011;49583;45.590;-122.498;2022-11-15T09:42:16;17.50;;;11.20;;
50631;SDS011;49583;45.590;-122.498;2022-11-15T09:45:03;17.10;;;10.40;;
50631;SDS011;49583;45.590;-122.498;2022-11-15T09:47:56;13.00;;;8.20;;
50631;SDS011;49583;45.590;-122.498;2022-11-15T09:50:31;16.30;;;8.80;;
50631;SDS011;49583;45.590;-122.498;2022-11-15T09:52:49;17.60;;;10.50;;
50631;SDS011;49583;45.590;-122.498;2022-11-15T09:55:03;16.60;;;9.50;;
50631;SDS011;49583;45.590;-122.498;2022-11-15T09:57:20;14.90;;;10.10;;
50631;SDS011;49583;45.590;-122.498;2022-11-15T09:59:42;14.00;;;9.90;;
50631;SDS011;49583;45.590;-122.498;2022-11-15T10:02:41;15.00;;;9.00;;
50631;SDS011;49583;45.590;-122.498;2022-11-15T10:05:02;14.00;;;9.30;;
50631;SDS011;49583;45.590;-122.498;2022-11-15T10:07:18;14.20;;;9.60;;
50631;SDS011;49583;45.590;-122.498;2022-11-15T10:09:36;15.60;;;9.20;;
50631;SDS011;49583;45.590;-122.498;2022-11-15T10:11:54;13.80;;;8.70;;
50631;SDS011;49583;45.590;-122.498;2022-11-15T10:14:08;16.90;;;9.90;;
50631;SDS011;49583;45.590;-122.498;2022-11-15T10:19:12;16.60;;;10.20;;
50631;SDS011;49583;45.590;-122.498;2022-11-15T10:21:32;14.90;;;9.20;;
50631;SDS011;49583;45.590;-122.498;2022-11-15T10:23:55;14.00;;;9.20;;
50631;SDS011;49583;45.590;-122.498;2022-11-15T10:26:09;14.20;;;9.30;;
50631;SDS011;49583;45.590;-122.498;2022-11-15T10:28:26;11.70;;;9.60;;
50631;SDS011;49583;45.590;-122.498;2022-11-15T10:30:40;16.80;;;10.50;;
50631;SDS011;49583;45.590;-122.498;2022-11-15T10:33:13;18.30;;;10.70;;
50631;SDS011;49583;45.590;-122.498;2022-11-15T10:35:35;17.20;;;10.20;;
50631;SDS011;49583;45.590;-122.498;2022-11-15T10:37:48;13.80;;;9.40;;
50631;SDS011;49583;45.590;-122.498;2022-11-15T10:40:05;18.60;;;10.10;;
50631;SDS011;49583;45.590;-122.498;2022-11-15T10:42:27;17.90;;;11.00;;
50631;SDS011;49583;45.590;-122.498;2022-11-15T10:44:43;21.10;;;12.30;;
50631;SDS011;49583;45.590;-122.498;2022-11-15T10:49:52;20.80;;;11.00;;
50631;SDS011;49583;45.590;-122.498;2022-11-15T10:52:12;17.90;;;11.00;;
50631;SDS011;49583;45.590;-122.498;2022-11-15T10:54:28;19.80;;;11.30;;
50631;SDS011;49583;45.590;-122.498;2022-11-15T10:56:47;15.40;;;9.30;;
50631;SDS011;49583;45.590;-122.498;2022-11-15T10:59:02;21.80;;;12.70;;
50631;SDS011;49583;45.590;-122.498;2022-11-15T11:01:16;16.80;;;10.80;;
50631;SDS011;49583;45.590;-122.498;2022-11-15T11:03:33;19.70;;;11.30;;
50631;SDS011;49583;45.590;-122.498;2022-11-15T11:05:48;14.80;;;10.20;;
50631;SDS011;49583;45.590;-122.498;2022-11-15T11:08:22;19.30;;;10.40;;
50631;SDS011;49583;45.590;-122.498;2022-11-15T11:10:35;19.90;;;11.50;;
50631;SDS011;49583;45.590;-122.498;2022-11-15T11:15:22;17.20;;;10.10;;
50631;SDS011;49583;45.590;-122.498;2022-11-15T11:17:41;16.10;;;10.70;;
50631;SDS011;49583;45.590;-122.498;2022-11-15T11:20:10;15.90;;;10.40;;
50631;SDS011;49583;45.590;-122.498;2022-11-15T11:22:30;16.30;;;10.20;;
50631;SDS011;49583;45.590;-122.498;2022-11-15T11:24:48;19.30;;;10.90;;
50631;SDS011;49583;45.590;-122.498;2022-11-15T11:27:21;16.70;;;10.40;;
50631;SDS011;49583;45.590;-122.498;2022-11-15T11:29:55;20.80;;;12.30;;
50631;SDS011;49583;45.590;-122.498;2022-11-15T11:32:23;15.70;;;8.70;;
50631;SDS011;49583;45.590;-122.498;2022-11-15T11:34:48;18.60;;;10.20;;
50631;SDS011;49583;45.590;-122.498;2022-11-15T11:37:11;17.40;;;10.90;;
50631;SDS011;49583;45.590;-122.498;2022-11-15T11:39:31;18.20;;;10.90;;
50631;SDS011;49583;45.590;-122.498;2022-11-15T11:41:59;20.90;;;12.30;;
50631;SDS011;49583;45.590;-122.498;2022-11-15T11:44:24;20.40;;;11.40;;
50631;SDS011;49583;45.590;-122.498;2022-11-15T11:46:51;19.20;;;11.30;;
50631;SDS011;49583;45.590;-122.498;2022-11-15T11:49:10;19.00;;;11.70;;
50631;SDS011;49583;45.590;-122.498;2022-11-15T11:51:28;16.40;;;10.50;;
50631;SDS011;49583;45.590;-122.498;2022-11-15T11:53:50;16.80;;;10.00;;
50631;SDS011;49583;45.590;-122.498;2022-11-15T11:56:14;17.40;;;10.90;;
50631;SDS011;49583;45.590;-122.498;2022-11-15T11:58:34;15.30;;;11.00;;
50631;SDS011;49583;45.590;-122.498;2022-11-15T12:00:54;21.30;;;12.40;;
50631;SDS011;49583;45.590;-122.498;2022-11-15T12:03:19;15.90;;;10.90;;
50631;SDS011;49583;45.590;-122.498;2022-11-15T12:05:39;21.60;;;13.60;;
50631;SDS011;49583;45.590;-122.498;2022-11-15T12:07:54;24.60;;;12.70;;
50631;SDS011;49583;45.590;-122.498;2022-11-15T12:10:17;18.90;;;11.60;;
50631;SDS011;49583;45.590;-122.498;2022-11-15T12:12:35;19.80;;;11.80;;
50631;SDS011;49583;45.590;-122.498;2022-11-15T12:14:53;19.80;;;11.60;;
50631;SDS011;49583;45.590;-122.498;2022-11-15T12:17:12;24.80;;;12.80;;
50631;SDS011;49583;45.590;-122.498;2022-11-15T12:19:26;23.80;;;13.30;;
50631;SDS011;49583;45.590;-122.498;2022-11-15T12:21:39;20.40;;;12.70;;
50631;SDS011;49583;45.590;-122.498;2022-11-15T12:23:59;20.20;;;11.10;;
50631;SDS011;49583;45.590;-122.498;2022-11-15T12:26:17;19.70;;;12.50;;
50631;SDS011;49583;45.590;-122.498;2022-11-15T12:28:34;16.70;;;11.50;;
50631;SDS011;49583;45.590;-122.498;2022-11-15T12:31:12;20.60;;;12.40;;
50631;SDS011;49583;45.590;-122.498;2022-11-15T12:33:32;17.70;;;11.70;;
50631;SDS011;49583;45.590;-122.498;2022-11-15T12:35:56;24.00;;;12.10;;
50631;SDS011;49583;45.590;-122.498;2022-11-15T12:38:11;16.50;;;10.90;;
50631;SDS011;49583;45.590;-122.498;2022-11-15T12:43:38;19.90;;;12.50;;
50631;SDS011;49583;45.590;-122.498;2022-11-15T12:45:52;22.80;;;12.80;;
50631;SDS011;49583;45.590;-122.498;2022-11-15T12:51:08;19.60;;;11.70;;
50631;SDS011;49583;45.590;-122.498;2022-11-15T12:53:30;17.00;;;10.80;;
50631;SDS011;49583;45.590;-122.498;2022-11-15T12:55:44;23.10;;;13.30;;
50631;SDS011;49583;45.590;-122.498;2022-11-15T12:58:42;19.20;;;11.70;;
50631;SDS011;49583;45.590;-122.498;2022-11-15T13:00:56;16.30;;;10.60;;
50631;SDS011;49583;45.590;-122.498;2022-11-15T13:03:22;19.20;;;11.40;;
50631;SDS011;49583;45.590;-122.498;2022-11-15T13:05:58;16.20;;;10.80;;
50631;SDS011;49583;45.590;-122.498;2022-11-15T13:10:57;17.90;;;10.80;;
50631;SDS011;49583;45.590;-122.498;2022-11-15T13:13:43;16.40;;;10.70;;
50631;SDS011;49583;45.590;-122.498;2022-11-15T13:15:56;17.10;;;10.60;;
50631;SDS011;49583;45.590;-122.498;2022-11-15T13:20:44;20.40;;;12.10;;
50631;SDS011;49583;45.590;-122.498;2022-11-15T13:23:01;19.80;;;11.80;;
50631;SDS011;49583;45.590;-122.498;2022-11-15T13:25:42;22.20;;;13.10;;
50631;SDS011;49583;45.590;-122.498;2022-11-15T13:28:22;17.20;;;12.40;;
50631;SDS011;49583;45.590;-122.498;2022-11-15T13:30:41;20.00;;;11.20;;
50631;SDS011;49583;45.590;-122.498;2022-11-15T13:33:09;17.50;;;10.80;;
50631;SDS011;49583;45.590;-122.498;2022-11-15T13:35:28;18.10;;;10.80;;
50631;SDS011;49583;45.590;-122.498;2022-11-15T13:37:46;16.00;;;10.00;;
50631;SDS011;49583;45.590;-122.498;2022-11-15T13:42:37;24.80;;;12.70;;
50631;SDS011;49583;45.590;-122.498;2022-11-15T13:44:58;16.50;;;10.20;;
50631;SDS011;49583;45.590;-122.498;2022-11-15T13:47:14;22.20;;;12.60;;
50631;SDS011;49583;45.590;-122.498;2022-11-15T13:49:31;19.40;;;11.50;;
50631;SDS011;49583;45.590;-122.498;2022-11-15T13:51:46;16.50;;;11.30;;
50631;SDS011;49583;45.590;-122.498;2022-11-15T13:54:02;16.60;;;10.60;;
50631;SDS011;49583;45.590;-122.498;2022-11-15T13:56:18;18.40;;;10.90;;
50631;SDS011;49583;45.590;-122.498;2022-11-15T13:58:34;17.00;;;10.90;;
50631;SDS011;49583;45.590;-122.498;2022-11-15T14:00:49;18.20;;;11.40;;
50631;SDS011;49583;45.590;-122.498;2022-11-15T14:03:16;15.80;;;10.40;;
50631;SDS011;49583;45.590;-122.498;2022-11-15T14:05:32;16.60;;;11.70;;
50631;SDS011;49583;45.590;-122.498;2022-11-15T14:07:55;18.80;;;11.90;;
50631;SDS011;49583;45.590;-122.498;2022-11-15T14:10:24;14.10;;;10.40;;
50631;SDS011;49583;45.590;-122.498;2022-11-15T14:12:49;16.60;;;10.30;;
50631;SDS011;49583;45.590;-122.498;2022-11-15T14:17:36;15.60;;;10.30;;
50631;SDS011;49583;45.590;-122.498;2022-11-15T14:19:55;15.20;;;9.70;;
50631;SDS011;49583;45.590;-122.498;2022-11-15T14:22:15;16.50;;;10.50;;
50631;SDS011;49583;45.590;-122.498;2022-11-15T14:24:31;15.70;;;10.30;;
50631;SDS011;49583;45.590;-122.498;2022-11-15T14:26:45;15.20;;;9.50;;
50631;SDS011;49583;45.590;-122.498;2022-11-15T14:28:58;22.00;;;11.70;;
50631;SDS011;49583;45.590;-122.498;2022-11-15T14:31:34;14.90;;;9.80;;
50631;SDS011;49583;45.590;-122.498;2022-11-15T14:33:50;15.50;;;10.10;;
50631;SDS011;49583;45.590;-122.498;2022-11-15T14:36:04;14.50;;;9.80;;
50631;SDS011;49583;45.590;-122.498;2022-11-15T14:38:22;14.00;;;10.50;;
50631;SDS011;49583;45.590;-122.498;2022-11-15T14:40:36;18.90;;;10.70;;
50631;SDS011;49583;45.590;-122.498;2022-11-15T14:42:49;20.40;;;11.50;;
50631;SDS011;49583;45.590;-122.498;2022-11-15T14:45:02;15.30;;;9.60;;
50631;SDS011;49583;45.590;-122.498;2022-11-15T14:47:19;18.90;;;11.30;;
50631;SDS011;49583;45.590;-122.498;2022-11-15T14:49:31;17.40;;;10.60;;
50631;SDS011;49583;45.590;-122.498;2022-11-15T14:51:44;16.70;;;11.20;;
50631;SDS011;49583;45.590;-122.498;2022-11-15T14:53:57;14.40;;;10.00;;